createdAt,value
2023-01-22T00:00:04.250Z,2.90
2023-01-22T00:02:38.934Z,3.10
2023-01-22T00:05:05.718Z,2.92
2023-01-22T00:07:32.119Z,2.95
2023-01-22T00:09:59.943Z,3.00
2023-01-22T00:12:26.701Z,2.70
2023-01-22T00:14:53.587Z,2.80
2023-01-22T00:17:20.333Z,2.88
2023-01-22T00:19:46.735Z,2.47
2023-01-22T00:22:13.161Z,2.85
2023-01-22T00:24:43.486Z,3.03
2023-01-22T00:27:10.147Z,2.70
2023-01-22T00:29:36.512Z,2.60
2023-01-22T00:32:03.481Z,2.67
2023-01-22T00:34:30.038Z,2.45
2023-01-22T00:36:57.543Z,2.92
2023-01-22T00:39:24.005Z,2.67
2023-01-22T00:41:51.587Z,2.50
2023-01-22T00:44:18.042Z,2.50
2023-01-22T00:46:44.492Z,2.50
2023-01-22T00:49:11.453Z,2.53
2023-01-22T00:51:39.314Z,2.30
2023-01-22T00:54:05.827Z,2.17
2023-01-22T00:56:32.488Z,1.90
2023-01-22T00:58:58.878Z,2.42
2023-01-22T01:01:25.450Z,2.22
2023-01-22T01:03:51.944Z,2.17
2023-01-22T01:06:20.195Z,2.10
2023-01-22T01:08:47.123Z,2.50
2023-01-22T01:11:18.415Z,2.53
2023-01-22T01:13:45.047Z,2.20
2023-01-22T01:16:17.666Z,2.97
2023-01-22T01:18:44.919Z,3.65
2023-01-22T01:21:12.131Z,3.15
2023-01-22T01:23:38.871Z,4.80
2023-01-22T01:26:09.680Z,3.90
2023-01-22T01:28:38.796Z,3.80
2023-01-22T01:31:06.379Z,4.38
2023-01-22T01:36:03.495Z,4.55
2023-01-22T01:38:31.562Z,4.10
2023-01-22T01:40:58.552Z,4.85
2023-01-22T01:43:25.276Z,4.10
2023-01-22T01:45:51.964Z,4.72
2023-01-22T01:48:38.872Z,4.43
2023-01-22T01:51:08.529Z,4.00
2023-01-22T01:53:35.456Z,4.55
2023-01-22T01:56:03.260Z,4.38
2023-01-22T01:58:31.606Z,4.07
2023-01-22T02:01:01.307Z,3.33
2023-01-22T02:03:28.508Z,3.88
2023-01-22T02:05:54.900Z,4.07
2023-01-22T02:08:21.303Z,4.32
2023-01-22T02:10:47.884Z,3.88
2023-01-22T02:13:20.589Z,3.95
2023-01-22T02:15:47.112Z,3.58
2023-01-22T02:18:13.567Z,3.75
2023-01-22T02:20:40.669Z,3.60
2023-01-22T02:23:07.808Z,3.70
2023-01-22T02:25:34.374Z,4.40
2023-01-22T02:28:01.510Z,3.83
2023-01-22T02:30:28.119Z,3.75
2023-01-22T02:32:56.116Z,4.00
2023-01-22T02:37:50.074Z,3.92
2023-01-22T02:40:16.845Z,4.03
2023-01-22T02:42:43.576Z,3.38
2023-01-22T02:45:11.401Z,3.85
2023-01-22T02:47:37.853Z,3.63
2023-01-22T02:50:05.562Z,3.28
2023-01-22T02:52:32.045Z,3.42
2023-01-22T02:54:58.428Z,3.28
2023-01-22T02:57:24.988Z,3.30
2023-01-22T02:59:51.419Z,3.17
2023-01-22T03:02:18.927Z,2.92
2023-01-22T03:04:50.070Z,3.42
2023-01-22T03:07:19.297Z,3.70
2023-01-22T03:09:45.932Z,3.15
2023-01-22T03:12:12.564Z,3.70
2023-01-22T03:14:57.633Z,2.85
2023-01-22T03:17:42.896Z,2.88
2023-01-22T03:20:28.058Z,3.20
2023-01-22T03:22:54.576Z,3.08
2023-01-22T03:25:21.039Z,3.47
2023-01-22T03:28:06.567Z,3.10
2023-01-22T03:30:34.619Z,3.30
2023-01-22T03:33:01.058Z,2.95
2023-01-22T03:35:27.751Z,3.50
2023-01-22T03:38:06.724Z,3.45
2023-01-22T03:40:34.021Z,3.45
2023-01-22T03:43:00.374Z,2.70
2023-01-22T03:45:26.876Z,2.92
2023-01-22T03:47:53.945Z,3.17
2023-01-22T03:50:29.958Z,3.08
2023-01-22T03:52:57.732Z,2.90
2023-01-22T03:55:25.374Z,2.90
2023-01-22T03:57:53.124Z,2.90
2023-01-22T04:00:20.604Z,3.45
2023-01-22T04:02:49.774Z,2.72
2023-01-22T04:05:20.967Z,3.30
2023-01-22T04:07:49.000Z,3.13
2023-01-22T04:10:17.269Z,2.97
2023-01-22T04:12:44.470Z,2.72
2023-01-22T04:15:14.064Z,2.78
2023-01-22T04:17:41.144Z,3.00
2023-01-22T04:20:18.345Z,3.25
2023-01-22T04:22:57.549Z,2.85
2023-01-22T04:25:24.091Z,3.10
2023-01-22T04:27:50.609Z,2.70
2023-01-22T04:30:19.054Z,3.38
2023-01-22T04:32:48.068Z,3.03
2023-01-22T04:35:35.510Z,3.00
2023-01-22T04:38:02.352Z,2.65
2023-01-22T04:40:29.003Z,2.97
2023-01-22T04:42:55.497Z,2.58
2023-01-22T04:45:23.213Z,2.60
2023-01-22T04:47:49.599Z,3.50
2023-01-22T04:50:20.967Z,2.90
2023-01-22T04:52:49.670Z,2.70
2023-01-22T04:55:16.138Z,2.60
2023-01-22T04:57:54.515Z,2.70
2023-01-22T05:00:21.015Z,2.95
2023-01-22T05:02:47.466Z,3.00
2023-01-22T05:05:13.990Z,3.05
2023-01-22T05:07:40.473Z,2.78
2023-01-22T05:10:07.874Z,2.70
2023-01-22T05:12:34.726Z,3.05
2023-01-22T05:15:03.961Z,2.90
2023-01-22T05:17:30.524Z,2.65
2023-01-22T05:19:57.036Z,2.65
2023-01-22T05:22:23.527Z,2.55
2023-01-22T05:24:49.926Z,2.97
2023-01-22T05:27:17.009Z,2.60
2023-01-22T05:29:59.567Z,2.53
2023-01-22T05:32:38.176Z,2.70
2023-01-22T05:35:05.536Z,2.47
2023-01-22T05:37:34.630Z,2.60
2023-01-22T05:40:01.825Z,2.38
2023-01-22T05:42:31.944Z,2.63
2023-01-22T05:44:58.411Z,2.40
2023-01-22T05:47:25.879Z,2.35
2023-01-22T05:50:07.473Z,2.30
2023-01-22T05:52:35.164Z,2.30
2023-01-22T05:55:01.897Z,2.05
2023-01-22T05:57:35.193Z,2.30
2023-01-22T06:00:01.668Z,2.20
2023-01-22T06:02:29.301Z,2.03
2023-01-22T06:04:56.144Z,2.35
2023-01-22T06:07:25.492Z,2.45
2023-01-22T06:09:52.429Z,2.30
2023-01-22T06:12:19.127Z,2.53
2023-01-22T06:14:46.444Z,2.20
2023-01-22T06:17:13.000Z,2.92
2023-01-22T06:19:44.872Z,2.83
2023-01-22T06:22:12.516Z,2.60
2023-01-22T06:24:45.766Z,2.40
2023-01-22T06:27:13.878Z,2.40
2023-01-22T06:29:50.253Z,2.20
2023-01-22T06:32:16.944Z,2.30
2023-01-22T06:34:44.025Z,2.60
2023-01-22T06:37:10.456Z,2.25
2023-01-22T06:39:38.314Z,2.22
2023-01-22T06:42:25.035Z,2.75
2023-01-22T06:44:51.647Z,2.40
2023-01-22T06:47:23.501Z,2.67
2023-01-22T06:49:50.038Z,2.58
2023-01-22T06:52:16.508Z,2.80
2023-01-22T06:54:43.245Z,2.90
2023-01-22T06:57:09.857Z,2.35
2023-01-22T06:59:38.357Z,2.50
2023-01-22T07:02:04.767Z,2.33
2023-01-22T07:04:31.169Z,2.17
2023-01-22T07:06:57.545Z,2.22
2023-01-22T07:09:24.043Z,2.22
2023-01-22T07:11:50.420Z,2.42
2023-01-22T07:14:28.908Z,2.58
2023-01-22T07:17:02.339Z,2.20
2023-01-22T07:19:28.711Z,2.40
2023-01-22T07:21:55.109Z,2.08
2023-01-22T07:24:21.499Z,2.50
2023-01-22T07:26:49.359Z,2.33
2023-01-22T07:29:15.800Z,2.58
2023-01-22T07:31:42.783Z,2.40
2023-01-22T07:34:09.434Z,1.83
2023-01-22T07:36:35.810Z,2.03
2023-01-22T07:39:05.633Z,2.25
2023-01-22T07:41:32.435Z,2.60
2023-01-22T07:44:00.388Z,2.40
2023-01-22T07:46:27.701Z,2.97
2023-01-22T07:48:54.110Z,2.40
2023-01-22T07:51:21.101Z,2.30
2023-01-22T07:53:47.656Z,2.30
2023-01-22T07:56:14.110Z,2.35
2023-01-22T07:58:41.175Z,1.85
2023-01-22T08:01:07.985Z,2.20
2023-01-22T08:03:34.461Z,2.05
2023-01-22T08:06:01.012Z,2.00
2023-01-22T08:08:27.496Z,1.98
2023-01-22T08:10:57.977Z,2.53
2023-01-22T08:13:24.345Z,1.83
2023-01-22T08:15:50.735Z,2.22
2023-01-22T08:18:19.334Z,2.15
2023-01-22T08:20:46.503Z,2.00
2023-01-22T08:23:12.971Z,2.08
2023-01-22T08:25:39.395Z,1.77
2023-01-22T08:28:06.450Z,1.98
2023-01-22T08:30:38.432Z,2.90
2023-01-22T08:33:11.689Z,2.80
2023-01-22T08:35:38.837Z,2.70
2023-01-22T08:38:05.220Z,3.08
2023-01-22T08:40:31.579Z,3.00
2023-01-22T08:42:57.958Z,3.53
2023-01-22T08:45:24.565Z,2.42
2023-01-22T08:47:55.588Z,3.60
2023-01-22T08:50:22.046Z,3.33
2023-01-22T08:52:48.425Z,3.35
2023-01-22T08:55:14.831Z,4.38
2023-01-22T08:57:41.394Z,5.68
2023-01-22T09:00:08.561Z,3.88
2023-01-22T09:02:35.168Z,2.50
2023-01-22T09:05:01.572Z,2.28
2023-01-22T09:07:27.932Z,1.92
2023-01-22T09:09:54.424Z,1.92
2023-01-22T09:12:20.843Z,1.75
2023-01-22T09:14:47.260Z,1.40
2023-01-22T09:17:13.721Z,1.60
2023-01-22T09:19:40.187Z,1.52
2023-01-22T09:22:07.580Z,1.70
2023-01-22T09:24:34.164Z,1.40
2023-01-22T09:27:00.559Z,1.20
2023-01-22T09:29:26.970Z,1.58
2023-01-22T09:31:53.835Z,1.30
2023-01-22T09:34:20.234Z,1.40
2023-01-22T09:36:46.954Z,1.20
2023-01-22T09:39:13.365Z,1.50
2023-01-22T09:41:41.269Z,1.30
2023-01-22T09:44:19.562Z,1.40
2023-01-22T09:46:48.523Z,1.30
2023-01-22T09:49:19.515Z,1.35
2023-01-22T09:51:51.625Z,1.17
2023-01-22T09:54:18.102Z,1.33
2023-01-22T09:56:46.402Z,1.17
2023-01-22T09:59:31.101Z,1.50
2023-01-22T10:02:00.318Z,1.23
2023-01-22T10:04:31.452Z,1.20
2023-01-22T10:07:00.507Z,1.20
2023-01-22T10:09:30.505Z,1.23
2023-01-22T10:11:58.907Z,1.25
2023-01-22T10:14:27.871Z,1.40
2023-01-22T10:16:55.335Z,1.20
2023-01-22T10:19:27.787Z,1.20
2023-01-22T10:22:02.473Z,1.30
2023-01-22T10:24:30.146Z,1.30
2023-01-22T10:26:58.847Z,1.02
2023-01-22T10:29:27.451Z,1.30
2023-01-22T10:31:55.575Z,1.25
2023-01-22T10:34:27.343Z,1.20
2023-01-22T10:36:54.177Z,1.27
2023-01-22T10:39:20.938Z,1.10
2023-01-22T10:41:48.067Z,0.90
2023-01-22T10:44:22.106Z,1.00
2023-01-22T10:46:49.926Z,1.00
2023-01-22T10:49:17.971Z,1.00
2023-01-22T10:51:49.137Z,1.20
2023-01-22T10:54:23.370Z,1.23
2023-01-22T10:56:50.153Z,1.20
2023-01-22T10:59:19.590Z,0.95
2023-01-22T11:01:48.105Z,0.90
2023-01-22T11:04:43.938Z,1.15
2023-01-22T11:07:15.575Z,1.05
2023-01-22T11:09:46.722Z,0.95
2023-01-22T11:12:20.011Z,1.30
2023-01-22T11:17:25.325Z,1.02
2023-01-22T11:20:02.678Z,0.82
2023-01-22T11:22:33.396Z,0.75
2023-01-22T11:24:59.852Z,1.20
2023-01-22T11:27:49.703Z,0.90
2023-01-22T11:30:26.120Z,0.98
2023-01-22T11:33:08.718Z,0.98
2023-01-22T11:35:44.508Z,0.90
2023-01-22T11:38:19.953Z,0.90
2023-01-22T11:40:59.620Z,0.75
2023-01-22T11:43:32.330Z,0.90
2023-01-22T11:46:13.974Z,0.90
2023-01-22T11:48:41.136Z,1.00
2023-01-22T11:53:52.718Z,1.10
2023-01-22T11:56:22.138Z,1.10
2023-01-22T11:58:55.729Z,0.93
2023-01-22T12:01:50.009Z,1.10
2023-01-22T12:04:25.640Z,1.20
2023-01-22T12:07:11.757Z,1.15
2023-01-22T12:09:41.187Z,1.10
2023-01-22T12:12:10.718Z,1.27
2023-01-22T12:14:37.089Z,1.20
2023-01-22T12:17:14.694Z,1.40
2023-01-22T12:19:49.920Z,1.30
2023-01-22T12:22:37.522Z,1.10
2023-01-22T12:25:22.745Z,1.23
2023-01-22T12:27:52.961Z,1.20
2023-01-22T12:30:22.227Z,1.40
2023-01-22T12:32:55.012Z,1.00
2023-01-22T12:35:22.163Z,1.13
2023-01-22T12:40:29.851Z,1.00
2023-01-22T12:43:03.206Z,1.00
2023-01-22T12:45:29.627Z,1.17
2023-01-22T12:48:04.182Z,1.15
2023-01-22T12:50:30.573Z,1.00
2023-01-22T12:52:58.405Z,1.10
2023-01-22T12:55:44.242Z,1.30
2023-01-22T12:58:24.151Z,1.63
2023-01-22T13:01:05.279Z,1.20
2023-01-22T13:03:33.299Z,1.35
2023-01-22T13:06:01.219Z,1.60
2023-01-22T13:08:35.398Z,1.30
2023-01-22T13:11:06.482Z,1.50
2023-01-22T13:13:36.335Z,1.40
2023-01-22T13:16:07.372Z,1.55
2023-01-22T13:18:35.251Z,1.35
2023-01-22T13:21:02.763Z,1.35
2023-01-22T13:23:34.023Z,1.42
2023-01-22T13:26:00.900Z,1.20
2023-01-22T13:28:28.261Z,1.30
2023-01-22T13:31:01.998Z,1.50
2023-01-22T13:33:28.798Z,1.27
2023-01-22T13:35:55.575Z,1.10
2023-01-22T13:38:23.534Z,1.20
2023-01-22T13:40:53.772Z,1.15
2023-01-22T13:43:22.764Z,1.20
2023-01-22T13:45:50.179Z,1.10
2023-01-22T13:48:18.521Z,1.13
2023-01-22T13:50:52.230Z,1.10
2023-01-22T13:53:22.447Z,1.30
2023-01-22T13:55:49.192Z,1.20
2023-01-22T13:58:46.472Z,1.10
2023-01-22T14:01:30.783Z,1.20
2023-01-22T14:04:00.672Z,1.15
2023-01-22T14:06:27.420Z,1.23
2023-01-22T14:08:55.229Z,1.10
2023-01-22T14:11:24.265Z,1.10
2023-01-22T14:13:51.443Z,1.10
2023-01-22T14:16:18.091Z,1.10
2023-01-22T14:18:47.803Z,1.10
2023-01-22T14:21:14.458Z,1.00
2023-01-22T14:23:42.605Z,1.20
2023-01-22T14:26:09.286Z,1.08
2023-01-22T14:28:35.862Z,1.17
2023-01-22T14:31:02.369Z,1.30
2023-01-22T14:33:35.503Z,1.10
2023-01-22T14:36:01.944Z,1.08
2023-01-22T14:38:28.451Z,1.30
2023-01-22T14:40:57.409Z,1.30
2023-01-22T14:43:23.910Z,1.42
2023-01-22T14:45:51.605Z,1.33
2023-01-22T14:48:19.145Z,1.20
2023-01-22T14:50:45.856Z,1.05
2023-01-22T14:53:12.984Z,1.25
2023-01-22T14:55:42.704Z,1.33
2023-01-22T14:58:12.214Z,1.48
2023-01-22T15:00:38.983Z,1.35
2023-01-22T15:03:05.399Z,1.40
2023-01-22T15:05:33.355Z,1.25
2023-01-22T15:08:01.827Z,1.38
2023-01-22T15:10:28.432Z,1.30
2023-01-22T15:12:54.814Z,1.20
2023-01-22T15:15:25.206Z,1.30
2023-01-22T15:17:52.132Z,1.15
2023-01-22T15:20:19.468Z,1.20
2023-01-22T15:22:46.552Z,1.23
2023-01-22T15:25:12.907Z,1.30
2023-01-22T15:27:39.335Z,1.30
2023-01-22T15:30:06.419Z,1.17
2023-01-22T15:32:33.152Z,1.30
2023-01-22T15:34:59.563Z,1.20
2023-01-22T15:37:25.987Z,1.17
2023-01-22T15:39:52.371Z,1.20
2023-01-22T15:42:18.759Z,1.30
2023-01-22T15:44:45.246Z,1.20
2023-01-22T15:47:11.785Z,1.15
2023-01-22T15:49:38.232Z,1.23
2023-01-22T15:52:04.923Z,1.30
2023-01-22T15:54:31.348Z,1.50
2023-01-22T15:56:57.752Z,1.35
2023-01-22T15:59:24.281Z,1.20
2023-01-22T16:01:50.688Z,1.27
2023-01-22T16:04:17.066Z,1.25
2023-01-22T16:06:43.545Z,1.13
2023-01-22T16:09:10.106Z,1.40
2023-01-22T16:11:36.633Z,1.50
2023-01-22T16:14:03.285Z,1.33
2023-01-22T16:16:31.396Z,1.63
2023-01-22T16:18:58.569Z,1.30
2023-01-22T16:23:55.662Z,1.60
2023-01-22T16:26:23.996Z,1.10
2023-01-22T16:28:51.566Z,1.42
2023-01-22T16:31:23.339Z,1.33
2023-01-22T16:33:51.523Z,1.30
2023-01-22T16:36:18.744Z,1.30
2023-01-22T16:41:24.113Z,1.88
2023-01-22T16:43:55.742Z,2.00
2023-01-22T16:46:23.609Z,2.20
2023-01-22T16:48:54.766Z,2.13
2023-01-22T16:51:24.688Z,2.00
2023-01-22T16:53:51.753Z,2.30
2023-01-22T16:56:18.180Z,2.47
2023-01-22T16:58:44.603Z,2.45
2023-01-22T17:01:12.542Z,2.20
2023-01-22T17:03:39.183Z,2.33
2023-01-22T17:06:05.825Z,2.28
2023-01-22T17:08:32.261Z,2.17
2023-01-22T17:10:58.691Z,2.20
2023-01-22T17:13:25.061Z,2.17
2023-01-22T17:15:53.540Z,2.20
2023-01-22T17:18:20.097Z,2.00
2023-01-22T17:21:01.401Z,2.35
2023-01-22T17:23:28.441Z,2.10
2023-01-22T17:25:54.817Z,2.22
2023-01-22T17:28:22.170Z,2.28
2023-01-22T17:30:48.961Z,2.20
2023-01-22T17:33:15.753Z,2.45
2023-01-22T17:35:42.287Z,2.10
2023-01-22T17:38:08.780Z,2.22
2023-01-22T17:40:37.960Z,2.40
2023-01-22T17:43:04.306Z,2.50
2023-01-22T17:45:30.757Z,2.20
2023-01-22T17:47:57.334Z,2.30
2023-01-22T17:50:23.748Z,2.20
2023-01-22T17:52:50.313Z,2.40
2023-01-22T17:55:16.828Z,2.40
2023-01-22T17:57:43.496Z,2.40
2023-01-22T18:00:10.225Z,2.17
2023-01-22T18:02:36.692Z,2.30
2023-01-22T18:05:03.160Z,2.30
2023-01-22T18:07:29.528Z,2.42
2023-01-22T18:09:55.924Z,2.50
2023-01-22T18:12:22.317Z,2.40
2023-01-22T18:14:48.904Z,2.40
2023-01-22T18:17:15.305Z,2.35
2023-01-22T18:19:41.764Z,2.30
2023-01-22T18:22:08.151Z,2.20
2023-01-22T18:24:36.267Z,2.28
2023-01-22T18:27:02.705Z,2.55
2023-01-22T18:29:29.452Z,2.28
2023-01-22T18:31:55.966Z,2.42
2023-01-22T18:34:22.409Z,2.33
2023-01-22T18:36:49.049Z,2.50
2023-01-22T18:39:17.709Z,2.50
2023-01-22T18:41:45.108Z,2.60
2023-01-22T18:46:39.269Z,2.80
2023-01-22T18:49:08.779Z,2.40
2023-01-22T18:51:35.234Z,2.40
2023-01-22T18:54:02.876Z,2.65
2023-01-22T18:56:29.273Z,2.40
2023-01-22T18:58:56.385Z,2.60
2023-01-22T19:01:24.481Z,2.55
2023-01-22T19:03:52.408Z,2.60
2023-01-22T19:06:19.883Z,2.33
2023-01-22T19:11:13.294Z,2.40
2023-01-22T19:13:40.561Z,2.47
2023-01-22T19:16:08.740Z,2.35
2023-01-22T19:18:35.355Z,2.42
2023-01-22T19:21:05.672Z,2.50
2023-01-22T19:23:32.704Z,2.80
2023-01-22T19:26:06.508Z,2.85
2023-01-22T19:28:32.970Z,2.50
2023-01-22T19:30:59.411Z,2.47
2023-01-22T19:33:27.739Z,2.53
2023-01-22T19:35:57.391Z,2.72
2023-01-22T19:38:23.883Z,2.38
2023-01-22T19:40:50.320Z,2.45
2023-01-22T19:43:16.791Z,2.40
2023-01-22T19:45:43.209Z,2.33
2023-01-22T19:48:09.722Z,2.33
2023-01-22T19:50:36.395Z,2.33
2023-01-22T19:53:02.856Z,2.40
2023-01-22T19:55:29.643Z,2.90
2023-01-22T19:57:56.281Z,2.28
2023-01-22T20:00:23.056Z,2.22
2023-01-22T20:02:49.544Z,2.20
2023-01-22T20:05:17.530Z,2.50
2023-01-22T20:07:44.639Z,2.30
2023-01-22T20:10:13.963Z,2.65
2023-01-22T20:12:40.823Z,2.38
2023-01-22T20:15:07.884Z,2.20
2023-01-22T20:17:34.339Z,2.05
2023-01-22T20:20:00.820Z,2.45
2023-01-22T20:22:27.298Z,2.55
2023-01-22T20:24:53.799Z,2.10
2023-01-22T20:27:20.215Z,2.25
2023-01-22T20:29:46.606Z,2.17
2023-01-22T20:32:12.975Z,2.20
2023-01-22T20:34:41.979Z,2.08
2023-01-22T20:37:08.435Z,2.22
2023-01-22T20:39:34.804Z,1.88
2023-01-22T20:42:01.202Z,2.20
2023-01-22T20:44:27.960Z,2.28
2023-01-22T20:46:56.446Z,2.20
2023-01-22T20:49:22.846Z,2.20
2023-01-22T20:51:49.296Z,2.28
2023-01-22T20:54:18.023Z,2.03
2023-01-22T20:56:45.848Z,2.00
2023-01-22T20:59:13.422Z,1.95
2023-01-22T21:01:40.210Z,2.10
2023-01-22T21:04:06.878Z,1.80
2023-01-22T21:06:34.126Z,2.00
2023-01-22T21:11:29.888Z,2.00
2023-01-22T21:13:57.036Z,2.10
2023-01-22T21:16:26.331Z,2.10
2023-01-22T21:18:53.595Z,1.90
2023-01-22T21:21:20.083Z,1.90
2023-01-22T21:23:47.687Z,1.63
2023-01-22T21:26:19.052Z,1.90
2023-01-22T21:28:45.938Z,1.90
2023-01-22T21:31:13.560Z,1.88
2023-01-22T21:33:40.204Z,2.05
2023-01-22T21:36:07.505Z,1.85
2023-01-22T21:41:14.574Z,1.83
2023-01-22T21:44:00.507Z,2.00
2023-01-22T21:46:28.102Z,1.88
2023-01-22T21:48:58.252Z,1.80
2023-01-22T21:51:29.266Z,2.10
2023-01-22T21:53:56.398Z,2.00
2023-01-22T21:56:23.321Z,1.95
2023-01-22T21:58:50.116Z,1.80
2023-01-22T22:01:18.752Z,2.08
2023-01-22T22:03:45.329Z,1.92
2023-01-22T22:06:13.214Z,1.83
2023-01-22T22:08:41.735Z,2.08
2023-01-22T22:11:08.144Z,2.00
2023-01-22T22:13:37.887Z,2.10
2023-01-22T22:16:05.470Z,2.17
2023-01-22T22:18:31.936Z,1.90
2023-01-22T22:21:02.447Z,2.20
2023-01-22T22:23:28.930Z,1.98
2023-01-22T22:25:55.347Z,2.25
2023-01-22T22:28:21.733Z,1.75
2023-01-22T22:30:48.153Z,1.73
2023-01-22T22:33:14.575Z,1.88
2023-01-22T22:35:40.930Z,1.70
2023-01-22T22:38:07.306Z,2.00
2023-01-22T22:40:33.679Z,1.90
2023-01-22T22:43:00.061Z,1.85
2023-01-22T22:45:26.477Z,1.95
2023-01-22T22:47:52.848Z,1.83
2023-01-22T22:50:19.526Z,1.88
2023-01-22T22:52:47.277Z,1.67
2023-01-22T22:57:39.932Z,1.90
2023-01-22T23:00:11.920Z,2.20
2023-01-22T23:02:39.535Z,2.20
2023-01-22T23:05:06.237Z,2.10
2023-01-22T23:07:32.637Z,1.88
2023-01-22T23:09:59.163Z,1.65
2023-01-22T23:12:25.660Z,1.90
2023-01-22T23:14:52.144Z,2.08
2023-01-22T23:17:18.591Z,1.90
2023-01-22T23:19:45.023Z,2.15
2023-01-22T23:22:11.420Z,2.22
2023-01-22T23:24:39.022Z,2.20
2023-01-22T23:27:05.460Z,1.83
2023-01-22T23:29:32.100Z,1.92
2023-01-22T23:31:58.585Z,2.30
2023-01-22T23:34:25.041Z,1.83
2023-01-22T23:36:51.713Z,2.75
2023-01-22T23:39:19.257Z,2.50
2023-01-22T23:44:11.932Z,3.50
2023-01-22T23:46:38.804Z,3.40
2023-01-22T23:49:05.295Z,3.40
2023-01-22T23:51:31.871Z,2.83
2023-01-22T23:53:58.556Z,2.83
2023-01-22T23:56:26.230Z,2.83
2023-01-22T23:58:53.908Z,2.85
